Arnott, WI

3:19 PM CDT on August 30, 2014 (GMT -0500)
APRSWXNET Whiting WI US | Change Station
CLOSE
Current Station
Personal Weather Station
Location: Stevens Point, WI
Elevation: 1082 ft
Nearby Weather Stations

Elev 1082 ft 44.50 °N, 89.56 °W | Updated 51 minutes ago

Overcast
Overcast
74 °F
Feels Like 75 °F
N
0
Wind Variable Wind from West
Gusts 0.0 mph

Today
High -- | Low -- °F
--% Chance of Precip.
Yesterday
High -- | Low -- °F
Precip. -- in
6:18 AM 7:38 PM
Waxing Crescent, 24% visible
Pressure 29.80 in
Visibility 10.0 miles
Clouds Scattered Clouds 5000 ft
Mostly Cloudy 7000 ft
Overcast 8500 ft
Heat Index 75 °F
Dew Point 66 °F
Humidity 77%
Rainfall -999.00 in
Snow Depth Not available.
UV 2 out of 12
Pollen 1.70 out of 12
Air Quality Not available.
Flu Activity Not available.
METAR KSTE 301915Z AUTO 29004KT 10SM SCT050 BKN070 OVC085 20/19 A2980 RMK AO2 T02000186

More Conditions Fewer Conditions

Pressure 29.80 in
Visibility 10.0 miles
Clouds Scattered Clouds 5000 ft
Mostly Cloudy 7000 ft
Overcast 8500 ft
Heat Index 75 °F
Dew Point 66 °F
Humidity 77%
Rainfall -999.00 in
Snow Depth Not available.
UV 2 out of 12
Pollen 1.70 out of 12
Air Quality Not available.
Flu Activity Not available.
METAR KSTE 301915Z AUTO 29004KT 10SM SCT050 BKN070 OVC085 20/19 A2980 RMK AO2 T02000186

More Conditions Fewer Conditions

10-Day Weather Forecast

Almanac

Astronomy

Aug. 30, 2014 Rise Set
Actual Time 6:18 AM CDT 7:38 PM CDT
Civil Twilight 5:48 AM CDT 8:08 PM CDT
Nautical Twilight 5:11 AM CDT 8:44 PM CDT
Astronomical Twilight 4:33 AM CDT 9:23 PM CDT
Moon 11:18 AM CDT 9:59 PM CDT
Length of Visible Light 14h 20m
Length of Day
13h 19m
Tomorrow will be 2m 57s shorter.
Waxing Crescent, 24% of the Moon is Illuminated
Today
Waxing Crescent
Sep 2
First Quarter
Sep 8
Full
Sep 15
Last Quarter
Sep 24
New

Today's Extremes

State Highs State Lows

Community

WunderPhotos

Upload Photos

1,748,622 photos uploaded!

WunderBlogs® & News

Nearby

Snow Depth

Station Depth Elevation
No new snow has been reported.

Earthquake Activity

City Distance Mag. Time & Date
No recent earthquake activity has been reported nearby.
Minimum magnitude displayed is 2.5.

Coastal Water Temperatures

Place Temperature
No Stations Reporting

Nearby Weather Stations